createdAt,value
2018-07-06T00:01:50.970Z,4.60
2018-07-06T00:04:29.753Z,4.87
2018-07-06T00:07:08.725Z,4.73
2018-07-06T00:09:47.784Z,4.13
2018-07-06T00:12:26.686Z,4.67
2018-07-06T00:15:05.496Z,4.80
2018-07-06T00:17:44.217Z,5.17
2018-07-06T00:20:22.888Z,4.00
2018-07-06T00:23:01.521Z,5.13
2018-07-06T00:25:40.379Z,4.20
2018-07-06T00:28:19.263Z,4.83
2018-07-06T00:30:58.065Z,4.80
2018-07-06T00:33:36.645Z,4.83
2018-07-06T00:36:15.501Z,4.33
2018-07-06T00:38:54.105Z,4.57
2018-07-06T00:41:32.770Z,4.17
2018-07-06T00:44:11.445Z,4.30
2018-07-06T00:46:50.253Z,4.70
2018-07-06T00:49:29.145Z,4.00
2018-07-06T00:52:07.909Z,4.50
2018-07-06T00:56:16.132Z,3.93
2018-07-06T00:58:55.106Z,4.50
2018-07-06T01:01:34.076Z,4.23
2018-07-06T01:04:12.888Z,4.40
2018-07-06T01:06:51.529Z,4.13
2018-07-06T01:09:30.334Z,4.53
2018-07-06T01:13:19.061Z,4.63
2018-07-06T01:15:58.250Z,3.93
2018-07-06T01:18:37.117Z,4.00
2018-07-06T01:21:15.843Z,3.97
2018-07-06T01:23:54.851Z,5.07
2018-07-06T01:26:33.653Z,4.20
2018-07-06T01:29:12.440Z,4.50
2018-07-06T01:31:51.187Z,4.17
2018-07-06T01:34:29.993Z,4.37
2018-07-06T01:37:08.738Z,4.37
2018-07-06T01:39:47.515Z,4.27
2018-07-06T01:42:26.248Z,4.70
2018-07-06T01:45:05.003Z,4.30
2018-07-06T01:47:43.928Z,4.90
2018-07-06T01:50:22.669Z,4.07
2018-07-06T01:53:01.245Z,4.70
2018-07-06T01:55:39.909Z,4.90
2018-07-06T01:58:18.765Z,4.50
2018-07-06T02:00:57.708Z,5.07
2018-07-06T02:03:36.362Z,4.50
2018-07-06T02:06:15.204Z,4.93
2018-07-06T02:08:53.921Z,4.97
2018-07-06T02:11:32.978Z,4.60
2018-07-06T02:14:11.672Z,5.05
2018-07-06T02:16:50.601Z,4.87
2018-07-06T02:19:29.307Z,5.70
2018-07-06T02:22:07.996Z,5.45
2018-07-06T02:24:46.847Z,5.10
2018-07-06T02:27:25.580Z,5.00
2018-07-06T02:30:04.384Z,5.30
2018-07-06T02:32:43.173Z,4.90
2018-07-06T02:35:22.067Z,5.13
2018-07-06T02:38:00.852Z,5.28
2018-07-06T02:40:33.838Z,5.37
2018-07-06T02:43:12.581Z,5.00
2018-07-06T02:45:51.413Z,5.00
2018-07-06T02:48:30.165Z,5.17
2018-07-06T02:51:09.149Z,5.10
2018-07-06T02:53:47.908Z,5.10
2018-07-06T02:56:26.656Z,5.22
2018-07-06T02:59:05.466Z,5.33
2018-07-06T03:01:44.118Z,5.37
2018-07-06T03:04:22.748Z,4.55
2018-07-06T03:07:01.724Z,5.08
2018-07-06T03:09:34.902Z,5.67
2018-07-06T03:12:14.184Z,5.10
2018-07-06T03:14:53.096Z,5.78
2018-07-06T03:17:31.868Z,4.95
2018-07-06T03:20:10.708Z,5.20
2018-07-06T03:22:49.380Z,4.90
2018-07-06T03:25:28.152Z,4.60
2018-07-06T03:28:07.157Z,5.07
2018-07-06T03:30:45.962Z,5.10
2018-07-06T03:33:24.571Z,5.30
2018-07-06T03:36:03.435Z,4.80
2018-07-06T03:38:42.276Z,5.57
2018-07-06T03:41:21.174Z,4.85
2018-07-06T03:44:00.137Z,4.90
2018-07-06T03:46:39.042Z,5.35
2018-07-06T03:49:18.337Z,4.97
2018-07-06T03:51:57.104Z,4.95
2018-07-06T03:54:36.123Z,5.10
2018-07-06T03:57:14.802Z,4.62
2018-07-06T03:59:53.565Z,4.80
2018-07-06T04:02:26.509Z,4.67
2018-07-06T04:05:05.349Z,4.92
2018-07-06T04:07:44.190Z,5.10
2018-07-06T04:10:22.902Z,5.17
2018-07-06T04:13:01.722Z,5.20
2018-07-06T04:15:40.623Z,5.80
2018-07-06T04:18:19.341Z,5.28
2018-07-06T04:20:58.369Z,5.15
2018-07-06T04:23:37.325Z,4.90
2018-07-06T04:26:16.065Z,5.17
2018-07-06T04:28:55.047Z,5.40
2018-07-06T04:31:34.089Z,5.37
2018-07-06T04:34:12.685Z,5.60
2018-07-06T04:36:51.537Z,5.20
2018-07-06T04:39:30.451Z,5.30
2018-07-06T04:42:09.457Z,5.60
2018-07-06T04:44:48.244Z,5.00
2018-07-06T04:47:26.965Z,5.08
2018-07-06T04:50:05.704Z,5.30
2018-07-06T04:52:44.572Z,4.90
2018-07-06T04:55:23.318Z,5.28
2018-07-06T04:58:02.292Z,5.00
2018-07-06T05:00:41.121Z,4.90
2018-07-06T05:03:20.234Z,5.00
2018-07-06T05:05:59.148Z,4.70
2018-07-06T05:08:38.021Z,4.70
2018-07-06T05:11:17.056Z,4.80
2018-07-06T05:13:55.873Z,5.50
2018-07-06T05:16:34.598Z,5.00
2018-07-06T05:19:13.377Z,5.20
2018-07-06T05:21:52.395Z,5.83
2018-07-06T05:24:31.344Z,5.03
2018-07-06T05:27:10.199Z,6.00
2018-07-06T05:29:49.129Z,5.05
2018-07-06T05:32:28.052Z,5.20
2018-07-06T05:35:06.937Z,4.80
2018-07-06T05:37:45.664Z,5.00
2018-07-06T05:40:24.396Z,4.83
2018-07-06T05:43:03.295Z,5.30
2018-07-06T05:45:42.205Z,4.65
2018-07-06T05:48:21.077Z,4.80
2018-07-06T05:50:59.745Z,5.25
2018-07-06T05:53:38.344Z,4.75
2018-07-06T05:56:17.217Z,4.80
2018-07-06T05:58:56.052Z,4.85
2018-07-06T06:01:35.223Z,4.60
2018-07-06T06:04:14.198Z,5.17
2018-07-06T06:06:53.194Z,5.07
2018-07-06T06:09:20.520Z,4.95
2018-07-06T06:11:47.806Z,5.20
2018-07-06T06:14:15.340Z,5.53
2018-07-06T06:16:42.849Z,6.10
2018-07-06T06:19:10.427Z,5.20
2018-07-06T06:21:37.694Z,5.37
2018-07-06T06:24:04.990Z,5.65
2018-07-06T06:26:32.343Z,6.10
2018-07-06T06:28:59.760Z,5.95
2018-07-06T06:31:28.814Z,6.50
2018-07-06T06:33:57.732Z,6.30
2018-07-06T06:36:25.209Z,6.33
2018-07-06T06:38:52.596Z,6.60
2018-07-06T06:41:20.048Z,6.70
2018-07-06T06:43:47.505Z,7.25
2018-07-06T06:46:14.822Z,7.62
2018-07-06T06:48:42.461Z,6.95
2018-07-06T06:51:11.033Z,7.15
2018-07-06T06:53:38.676Z,7.17
2018-07-06T06:56:05.959Z,6.97
2018-07-06T06:58:33.245Z,6.37
2018-07-06T07:01:00.663Z,7.30
2018-07-06T07:03:27.910Z,7.33
2018-07-06T07:05:55.195Z,7.20
2018-07-06T07:08:22.666Z,7.70
2018-07-06T07:12:41.253Z,7.40
2018-07-06T07:15:08.564Z,7.80
2018-07-06T07:17:35.972Z,7.30
2018-07-06T07:20:03.247Z,7.50
2018-07-06T07:22:30.654Z,7.50
2018-07-06T07:24:58.028Z,7.20
2018-07-06T07:27:25.312Z,7.30
2018-07-06T07:29:53.239Z,6.70
2018-07-06T07:32:20.640Z,6.45
2018-07-06T07:34:48.494Z,7.03
2018-07-06T07:37:15.809Z,6.10
2018-07-06T07:39:43.090Z,6.30
2018-07-06T07:42:10.363Z,6.62
2018-07-06T07:44:37.678Z,6.20
2018-07-06T07:47:04.935Z,7.30
2018-07-06T07:49:32.417Z,6.70
2018-07-06T07:52:12.122Z,6.40
2018-07-06T07:54:43.807Z,7.50
2018-07-06T07:57:11.181Z,6.97
2018-07-06T07:59:38.810Z,7.10
2018-07-06T08:02:06.221Z,6.00
2018-07-06T08:04:33.441Z,6.97
2018-07-06T08:07:01.093Z,6.00
2018-07-06T08:24:10.954Z,6.00
2018-07-06T08:26:38.236Z,5.97
2018-07-06T08:29:05.592Z,6.37
2018-07-06T08:31:33.223Z,5.65
2018-07-06T08:34:12.187Z,6.03
2018-07-06T08:40:18.219Z,4.93
2018-07-06T08:42:47.804Z,5.30
2018-07-06T08:45:15.130Z,4.72
2018-07-06T08:47:42.890Z,5.50
2018-07-06T08:50:10.712Z,5.03
2018-07-06T08:52:38.879Z,4.53
2018-07-06T08:55:06.445Z,4.60
2018-07-06T08:57:35.518Z,4.70
2018-07-06T09:00:02.831Z,4.87
2018-07-06T09:02:30.387Z,4.37
2018-07-06T09:04:58.583Z,4.43
2018-07-06T09:07:26.052Z,4.23
2018-07-06T09:09:54.125Z,4.20
2018-07-06T09:12:21.431Z,4.13
2018-07-06T09:14:48.840Z,4.17
2018-07-06T09:17:17.068Z,4.33
2018-07-06T09:19:45.028Z,4.20
2018-07-06T09:22:12.796Z,4.30
2018-07-06T09:24:40.937Z,3.70
2018-07-06T09:27:09.353Z,4.10
2018-07-06T09:29:36.608Z,4.27
2018-07-06T09:32:03.857Z,5.10
2018-07-06T09:34:31.108Z,4.30
2018-07-06T09:36:58.357Z,4.50
2018-07-06T09:39:25.633Z,3.60
2018-07-06T09:41:52.866Z,3.93
2018-07-06T09:44:20.221Z,3.87
2018-07-06T09:46:47.481Z,3.40
2018-07-06T09:49:14.730Z,3.63
2018-07-06T09:51:41.985Z,4.47
2018-07-06T09:54:09.355Z,3.93
2018-07-06T09:56:36.678Z,3.60
2018-07-06T09:59:03.992Z,3.40
2018-07-06T10:01:31.265Z,5.10
2018-07-06T10:03:58.473Z,3.50
2018-07-06T10:06:26.540Z,4.00
2018-07-06T10:08:54.308Z,3.90
2018-07-06T10:11:21.983Z,3.93
2018-07-06T10:13:49.456Z,4.27
2018-07-06T10:16:16.746Z,3.53
2018-07-06T10:18:43.959Z,3.70
2018-07-06T10:21:12.682Z,3.67
2018-07-06T10:23:39.982Z,4.30
2018-07-06T10:26:07.298Z,3.57
2018-07-06T10:30:49.115Z,3.03
2018-07-06T10:33:16.544Z,3.83
2018-07-06T10:35:45.119Z,4.97
2018-07-06T10:38:12.392Z,3.60
2018-07-06T10:40:39.695Z,4.47
2018-07-06T10:43:07.017Z,3.60
2018-07-06T10:45:34.344Z,3.07
2018-07-06T10:48:01.628Z,3.73
2018-07-06T10:50:28.902Z,3.67
2018-07-06T10:52:56.161Z,4.00
2018-07-06T10:55:23.478Z,3.97
2018-07-06T10:57:50.901Z,3.70
2018-07-06T11:00:18.141Z,4.03
2018-07-06T11:02:45.420Z,3.03
2018-07-06T11:05:13.187Z,4.20
2018-07-06T11:07:40.428Z,3.00
2018-07-06T11:10:07.736Z,3.10
2018-07-06T11:12:34.950Z,3.80
2018-07-06T11:15:02.213Z,2.80
2018-07-06T11:22:23.116Z,3.52
2018-07-06T11:24:50.352Z,3.72
2018-07-06T11:27:17.705Z,3.47
2018-07-06T11:29:44.999Z,3.42
2018-07-06T11:32:12.338Z,3.80
2018-07-06T11:34:39.529Z,3.15
2018-07-06T11:37:06.792Z,3.25
2018-07-06T11:39:34.047Z,3.60
2018-07-06T11:42:01.399Z,2.67
2018-07-06T11:44:28.855Z,3.30
2018-07-06T11:46:56.064Z,2.37
2018-07-06T11:56:44.007Z,2.47
2018-07-06T11:59:11.303Z,3.00
2018-07-06T12:01:38.614Z,2.80
2018-07-06T12:04:06.090Z,2.80
2018-07-06T12:06:33.284Z,3.30
2018-07-06T12:09:00.526Z,2.80
2018-07-06T12:11:27.869Z,2.60
2018-07-06T12:13:55.194Z,3.58
2018-07-06T12:16:22.473Z,2.60
2018-07-06T12:18:49.730Z,2.70
2018-07-06T12:21:17.095Z,2.75
2018-07-06T12:23:44.453Z,3.05
2018-07-06T12:26:11.733Z,3.97
2018-07-06T12:28:40.518Z,3.80
2018-07-06T12:31:07.977Z,2.87
2018-07-06T12:33:35.284Z,4.00
2018-07-06T12:36:02.593Z,3.73
2018-07-06T12:38:30.041Z,3.00
2018-07-06T12:40:57.438Z,3.13
2018-07-06T12:43:24.661Z,3.03
2018-07-06T12:45:51.973Z,3.50
2018-07-06T12:48:19.383Z,2.50
2018-07-06T12:50:46.608Z,2.83
2018-07-06T12:53:13.829Z,2.90
2018-07-06T12:55:41.134Z,3.10
2018-07-06T12:58:08.424Z,3.70
2018-07-06T13:00:35.761Z,4.07
2018-07-06T13:03:04.959Z,2.70
2018-07-06T13:05:32.172Z,2.87
2018-07-06T13:07:59.430Z,3.37
2018-07-06T13:10:26.730Z,2.98
2018-07-06T13:12:53.981Z,3.27
2018-07-06T13:15:21.275Z,3.23
2018-07-06T13:17:48.604Z,2.70
2018-07-06T13:20:15.869Z,3.60
2018-07-06T13:22:44.404Z,3.30
2018-07-06T13:25:11.720Z,2.97
2018-07-06T13:27:39.029Z,3.70
2018-07-06T13:30:06.485Z,3.20
2018-07-06T13:32:33.842Z,3.00
2018-07-06T13:35:01.445Z,3.23
2018-07-06T13:37:28.837Z,3.60
2018-07-06T13:39:56.109Z,3.10
2018-07-06T13:42:23.517Z,2.83
2018-07-06T13:44:51.034Z,2.97
2018-07-06T13:47:18.420Z,3.47
2018-07-06T13:49:46.756Z,3.33
2018-07-06T13:52:14.009Z,2.83
2018-07-06T13:54:41.303Z,3.27
2018-07-06T13:57:08.518Z,3.07
2018-07-06T13:59:36.384Z,2.90
2018-07-06T14:04:30.411Z,3.20
2018-07-06T14:06:57.707Z,2.83
2018-07-06T14:09:25.047Z,2.90
2018-07-06T14:11:52.949Z,2.60
2018-07-06T14:14:20.223Z,2.30
2018-07-06T14:19:08.761Z,2.40
2018-07-06T14:21:35.992Z,3.13
2018-07-06T14:24:03.240Z,3.23
2018-07-06T14:26:30.639Z,3.13
2018-07-06T14:28:58.157Z,2.20
2018-07-06T14:31:25.349Z,3.30
2018-07-06T14:33:52.806Z,2.87
2018-07-06T14:36:20.100Z,3.17
2018-07-06T14:41:15.258Z,3.13
2018-07-06T14:43:42.516Z,3.07
2018-07-06T14:46:09.888Z,2.70
2018-07-06T14:48:37.136Z,2.60
2018-07-06T14:51:04.495Z,2.90
2018-07-06T14:53:31.756Z,3.90
2018-07-06T14:55:59.035Z,3.37
2018-07-06T15:03:19.908Z,3.05
2018-07-06T15:05:47.207Z,2.87
2018-07-06T15:08:14.553Z,3.20
2018-07-06T15:10:41.887Z,2.63
2018-07-06T15:13:09.286Z,3.10
2018-07-06T15:15:36.849Z,3.37
2018-07-06T15:18:04.201Z,2.40
2018-07-06T15:20:31.507Z,2.47
2018-07-06T15:22:59.773Z,2.80
2018-07-06T15:25:27.200Z,2.97
2018-07-06T15:27:54.469Z,2.67
2018-07-06T15:30:21.756Z,2.90
2018-07-06T15:32:49.194Z,2.75
2018-07-06T15:35:16.450Z,3.30
2018-07-06T15:37:43.702Z,2.70
2018-07-06T15:40:11.164Z,3.70
2018-07-06T15:42:38.466Z,3.10
2018-07-06T15:45:06.218Z,3.58
2018-07-06T15:47:33.499Z,4.50
2018-07-06T15:50:00.790Z,4.67
2018-07-06T15:57:21.671Z,3.30
2018-07-06T15:59:49.008Z,4.30
2018-07-06T16:02:16.325Z,3.87
2018-07-06T16:04:43.585Z,2.77
2018-07-06T16:07:10.840Z,3.40
2018-07-06T16:09:38.132Z,3.40
2018-07-06T16:12:05.384Z,2.80
2018-07-06T16:14:32.901Z,2.70
2018-07-06T16:17:00.182Z,2.90
2018-07-06T16:21:54.349Z,3.37
2018-07-06T16:24:21.792Z,2.87
2018-07-06T16:26:51.107Z,3.12
2018-07-06T16:29:19.298Z,3.30
2018-07-06T16:31:46.604Z,2.80
2018-07-06T16:34:13.842Z,2.80
2018-07-06T16:36:42.207Z,3.00
2018-07-06T16:39:09.457Z,2.42
2018-07-06T16:41:36.729Z,3.03
2018-07-06T16:44:05.238Z,2.63
2018-07-06T16:46:32.409Z,2.83
2018-07-06T16:48:59.671Z,3.23
2018-07-06T16:51:26.918Z,3.27
2018-07-06T16:53:54.297Z,3.57
2018-07-06T16:56:21.624Z,2.93
2018-07-06T16:58:49.322Z,2.90
2018-07-06T17:01:16.634Z,3.10
2018-07-06T17:03:43.873Z,3.80
2018-07-06T17:06:11.142Z,3.20
2018-07-06T17:08:38.393Z,3.52
2018-07-06T17:11:05.701Z,3.37
2018-07-06T17:13:32.958Z,3.50
2018-07-06T17:16:00.252Z,4.73
2018-07-06T17:18:27.633Z,4.17
2018-07-06T17:20:54.965Z,3.97
2018-07-06T17:28:16.103Z,3.40
2018-07-06T17:30:43.402Z,2.90
2018-07-06T17:33:10.805Z,4.27
2018-07-06T17:35:38.054Z,3.93
2018-07-06T17:38:05.361Z,4.10
2018-07-06T17:40:32.696Z,4.80
2018-07-06T17:43:00.113Z,3.53
2018-07-06T17:45:27.558Z,3.17
2018-07-06T17:47:54.894Z,4.00
2018-07-06T17:50:22.304Z,4.90
2018-07-06T17:52:49.649Z,3.90
2018-07-06T17:55:16.902Z,3.27
2018-07-06T17:57:44.176Z,4.70
2018-07-06T18:00:11.580Z,4.45
2018-07-06T18:02:38.914Z,4.83
2018-07-06T18:05:06.629Z,5.53
2018-07-06T18:07:33.909Z,4.93
2018-07-06T18:10:01.198Z,3.30
2018-07-06T18:12:28.528Z,3.77
2018-07-06T18:14:55.923Z,6.15
2018-07-06T18:17:23.301Z,5.05
2018-07-06T18:19:50.733Z,4.40
2018-07-06T18:22:18.150Z,4.40
2018-07-06T18:24:46.147Z,4.20
2018-07-06T18:27:13.437Z,4.72
2018-07-06T18:29:40.918Z,4.17
2018-07-06T18:32:08.214Z,3.92
2018-07-06T18:34:35.572Z,3.85
2018-07-06T18:37:02.922Z,4.47
2018-07-06T18:39:30.285Z,3.70
2018-07-06T18:41:57.587Z,3.33
2018-07-06T18:44:24.895Z,3.90
2018-07-06T18:46:52.240Z,3.20
2018-07-06T18:49:20.525Z,3.60
2018-07-06T18:51:47.904Z,3.40
2018-07-06T18:54:15.222Z,3.87
2018-07-06T18:56:42.549Z,3.50
2018-07-06T18:59:09.786Z,3.83
2018-07-06T19:01:37.089Z,5.00
2018-07-06T19:04:04.814Z,3.57
2018-07-06T19:06:32.063Z,4.00
2018-07-06T19:08:59.345Z,4.47
2018-07-06T19:11:26.666Z,4.30
2018-07-06T19:13:54.061Z,3.77
2018-07-06T19:16:21.466Z,4.30
2018-07-06T19:18:48.770Z,4.23
2018-07-06T19:21:16.090Z,3.20
2018-07-06T19:23:43.465Z,3.20
2018-07-06T19:26:10.742Z,4.40
2018-07-06T19:28:38.031Z,6.83
2018-07-06T19:31:05.308Z,3.80
2018-07-06T19:33:32.684Z,3.00
2018-07-06T19:36:00.017Z,3.10
2018-07-06T19:38:27.242Z,4.30
2018-07-06T19:40:54.540Z,4.10
2018-07-06T19:43:21.847Z,3.90
2018-07-06T19:45:49.147Z,3.23
2018-07-06T19:48:16.414Z,3.63
2018-07-06T19:50:43.727Z,3.27
2018-07-06T19:53:11.026Z,3.30
2018-07-06T19:55:38.322Z,3.30
2018-07-06T19:58:05.817Z,5.03
2018-07-06T20:00:33.132Z,3.13
2018-07-06T20:03:00.369Z,3.70
2018-07-06T20:05:27.652Z,3.73
2018-07-06T20:07:55.167Z,3.10
2018-07-06T20:10:22.508Z,3.60
2018-07-06T20:12:49.850Z,3.87
2018-07-06T20:15:17.185Z,3.87
2018-07-06T20:17:44.475Z,3.60
2018-07-06T20:20:11.724Z,4.53
2018-07-06T20:22:39.046Z,4.57
2018-07-06T20:25:06.290Z,3.70
2018-07-06T20:27:33.662Z,3.57
2018-07-06T20:30:00.918Z,3.70
2018-07-06T20:32:28.184Z,3.17
2018-07-06T20:34:55.785Z,5.33
2018-07-06T20:37:23.265Z,4.17
2018-07-06T20:39:50.596Z,4.13
2018-07-06T20:42:17.830Z,3.37
2018-07-06T20:44:45.089Z,3.27
2018-07-06T20:47:12.496Z,3.50
2018-07-06T20:49:39.806Z,3.60
2018-07-06T20:52:07.092Z,3.27
2018-07-06T20:54:34.400Z,3.33
2018-07-06T20:57:02.487Z,4.33
2018-07-06T20:59:29.989Z,3.70
2018-07-06T21:01:57.230Z,4.50
2018-07-06T21:04:24.585Z,3.27
2018-07-06T21:06:52.844Z,4.20
2018-07-06T21:09:20.198Z,4.33
2018-07-06T21:11:47.519Z,4.07
2018-07-06T21:14:14.756Z,3.33
2018-07-06T21:16:42.061Z,4.27
2018-07-06T21:19:09.333Z,7.13
2018-07-06T21:21:36.616Z,4.40
2018-07-06T21:24:04.050Z,3.97
2018-07-06T21:26:31.316Z,4.23
2018-07-06T21:28:58.525Z,3.93
2018-07-06T21:31:25.794Z,4.30
2018-07-06T21:33:53.081Z,4.10
2018-07-06T21:36:20.490Z,4.40
2018-07-06T21:38:47.795Z,5.00
2018-07-06T21:41:15.086Z,3.87
2018-07-06T21:43:42.389Z,4.00
2018-07-06T21:46:09.689Z,4.33
2018-07-06T21:48:37.012Z,4.63
2018-07-06T21:51:04.358Z,3.80
2018-07-06T21:53:32.262Z,4.53
2018-07-06T21:55:59.636Z,4.90
2018-07-06T21:58:26.943Z,4.90
2018-07-06T22:00:54.227Z,3.67
2018-07-06T22:03:21.680Z,3.60
2018-07-06T22:05:49.345Z,3.50
2018-07-06T22:08:16.649Z,4.00
2018-07-06T22:10:44.026Z,4.67
2018-07-06T22:13:11.338Z,4.80
2018-07-06T22:15:43.680Z,3.20
2018-07-06T22:18:12.154Z,3.60
2018-07-06T22:20:39.565Z,4.17
2018-07-06T22:23:06.825Z,3.53
2018-07-06T22:25:34.217Z,4.90
2018-07-06T22:28:01.548Z,3.73
2018-07-06T22:30:28.823Z,3.13
2018-07-06T22:32:56.110Z,3.60
2018-07-06T22:35:24.079Z,4.30
2018-07-06T22:37:51.473Z,3.93
2018-07-06T22:40:18.752Z,4.10
2018-07-06T22:42:46.065Z,3.30
2018-07-06T22:45:13.761Z,4.03
2018-07-06T22:47:41.226Z,3.57
2018-07-06T22:50:09.053Z,3.20
2018-07-06T22:52:36.452Z,3.80
2018-07-06T22:55:04.045Z,3.60
2018-07-06T22:57:31.395Z,3.63
2018-07-06T22:59:58.615Z,3.80
2018-07-06T23:02:25.870Z,3.63
2018-07-06T23:04:53.145Z,3.43
2018-07-06T23:07:20.434Z,3.27
2018-07-06T23:09:47.712Z,4.37
2018-07-06T23:12:14.952Z,3.93
2018-07-06T23:14:42.220Z,4.23
2018-07-06T23:17:09.603Z,3.30
2018-07-06T23:19:36.849Z,3.37
2018-07-06T23:24:32.978Z,4.33
2018-07-06T23:27:00.219Z,3.83
2018-07-06T23:29:27.453Z,3.43
2018-07-06T23:31:54.727Z,4.07
2018-07-06T23:34:22.058Z,3.70
2018-07-06T23:36:49.290Z,4.43
2018-07-06T23:39:16.486Z,3.60
2018-07-06T23:41:44.071Z,3.93
2018-07-06T23:44:11.298Z,3.77
2018-07-06T23:46:38.549Z,3.97
2018-07-06T23:49:05.801Z,3.60
2018-07-06T23:51:33.210Z,3.60
2018-07-06T23:54:00.614Z,3.23
2018-07-06T23:56:27.867Z,3.43
2018-07-06T23:58:55.115Z,2.83
